THA600 VTBS-VHHH
Flight info
| Callsign | THA600 |
|---|---|
| Flight time | N/A |
| Altitude | 38000 |
| Route | SELKA1T SELKA A1 TOPER W42 RAMEI A202 VILAO/K0898F380 A202 ASSAD/K0898S1160 A202 SIKOU/N0486F380 V571 GAMBA V561 MAPLE V571 COMBI V561 ROCCA V571 CANTO |
| Aircraft | B77W/H-SDE1E2E3FGHIJ2J3J4J5M1RWXY/LB1D1 |
Departure
| Time | N/A |
|---|---|
| Airport | Suvarnabhumi Airport (VTBS) |
Arrival
| Time | 2026-05-04 08:21 |
|---|---|
| Airport | Hong Kong International Airport (VHHH) |
| Time | Latitude | Longitude | Altitude | Speed | Heading |
|---|---|---|---|---|---|
| 2026-05-04 07:15 | 18.70076 | 108.13867 | 37970 ft | 517 kts | 48° |
| 2026-05-04 07:16 | 18.74655 | 108.19720 | 37968 ft | 517 kts | 48° |
| 2026-05-04 07:16 | 18.79193 | 108.25526 | 37964 ft | 517 kts | 48° |
| 2026-05-04 07:17 | 18.83763 | 108.31380 | 37976 ft | 516 kts | 48° |
| 2026-05-04 07:17 | 18.88325 | 108.37230 | 37972 ft | 516 kts | 48° |
| 2026-05-04 07:18 | 18.92889 | 108.43085 | 37971 ft | 515 kts | 48° |
| 2026-05-04 07:18 | 18.97405 | 108.48884 | 37979 ft | 515 kts | 48° |
| 2026-05-04 07:19 | 19.01954 | 108.54735 | 37979 ft | 515 kts | 48° |
| 2026-05-04 07:19 | 19.06491 | 108.60576 | 37978 ft | 515 kts | 48° |
| 2026-05-04 07:20 | 19.11036 | 108.66426 | 37981 ft | 515 kts | 48° |
| 2026-05-04 07:20 | 19.15555 | 108.72252 | 37984 ft | 515 kts | 48° |
| 2026-05-04 07:22 | 19.33790 | 108.95774 | 37984 ft | 518 kts | 48° |
| 2026-05-04 07:23 | 19.38337 | 109.01636 | 37990 ft | 519 kts | 48° |
| 2026-05-04 07:23 | 19.42921 | 109.07555 | 37987 ft | 520 kts | 48° |
| 2026-05-04 07:24 | 19.47508 | 109.13485 | 37988 ft | 520 kts | 49° |
| 2026-05-04 07:24 | 19.52099 | 109.19425 | 37990 ft | 521 kts | 49° |
| 2026-05-04 07:26 | 19.70308 | 109.43379 | 37984 ft | 523 kts | 49° |
| 2026-05-04 07:27 | 19.74847 | 109.49363 | 37982 ft | 524 kts | 49° |
| 2026-05-04 07:27 | 19.79413 | 109.55391 | 37987 ft | 524 kts | 49° |
| 2026-05-04 07:28 | 19.83978 | 109.61424 | 37978 ft | 525 kts | 49° |
| 2026-05-04 07:28 | 19.88548 | 109.67480 | 37989 ft | 525 kts | 49° |
| 2026-05-04 07:29 | 19.93094 | 109.73496 | 37991 ft | 526 kts | 49° |
| 2026-05-04 07:29 | 19.97675 | 109.79560 | 37971 ft | 527 kts | 49° |
| 2026-05-04 07:30 | 20.02254 | 109.85637 | 37973 ft | 527 kts | 49° |
| 2026-05-04 07:30 | 20.06838 | 109.91727 | 37982 ft | 527 kts | 49° |
| 2026-05-04 07:31 | 20.11392 | 109.97783 | 37982 ft | 528 kts | 49° |
| 2026-05-04 07:33 | 20.29711 | 110.22210 | 37971 ft | 531 kts | 49° |
| 2026-05-04 07:33 | 20.34344 | 110.28325 | 37997 ft | 531 kts | 48° |
| 2026-05-04 07:34 | 20.39018 | 110.34424 | 37979 ft | 530 kts | 48° |
| 2026-05-04 07:34 | 20.43659 | 110.40506 | 37986 ft | 528 kts | 48° |
| 2026-05-04 07:35 | 20.48168 | 110.46615 | 37987 ft | 529 kts | 54° |
| 2026-05-04 07:35 | 20.51808 | 110.53445 | 37993 ft | 530 kts | 64° |
| 2026-05-04 07:36 | 20.54435 | 110.60796 | 37993 ft | 531 kts | 70° |
| 2026-05-04 07:38 | 20.64328 | 110.90578 | 37992 ft | 535 kts | 69° |
| 2026-05-04 07:38 | 20.66848 | 110.98056 | 37988 ft | 535 kts | 69° |
| 2026-05-04 07:39 | 20.69363 | 111.05495 | 37989 ft | 536 kts | 69° |
| 2026-05-04 07:39 | 20.71888 | 111.12977 | 37989 ft | 536 kts | 69° |
| 2026-05-04 07:40 | 20.74410 | 111.20476 | 37986 ft | 536 kts | 69° |
| 2026-05-04 07:40 | 20.76926 | 111.27969 | 37987 ft | 536 kts | 69° |
| 2026-05-04 07:41 | 20.79419 | 111.35404 | 37984 ft | 536 kts | 69° |
| 2026-05-04 07:41 | 20.81929 | 111.42901 | 37986 ft | 536 kts | 69° |
| 2026-05-04 07:42 | 20.84436 | 111.50402 | 37986 ft | 536 kts | 69° |
| 2026-05-04 07:42 | 20.86961 | 111.57892 | 37989 ft | 536 kts | 69° |
| 2026-05-04 07:43 | 20.89487 | 111.65340 | 37988 ft | 536 kts | 69° |
| 2026-05-04 07:43 | 20.92022 | 111.72839 | 37996 ft | 536 kts | 69° |
| 2026-05-04 07:44 | 20.94551 | 111.80341 | 37990 ft | 536 kts | 69° |
| 2026-05-04 07:44 | 20.97075 | 111.87850 | 37989 ft | 536 kts | 69° |
| 2026-05-04 07:45 | 20.99595 | 111.95356 | 37989 ft | 536 kts | 69° |
| 2026-05-04 07:45 | 21.02099 | 112.02826 | 37991 ft | 536 kts | 69° |
| 2026-05-04 07:46 | 21.04616 | 112.10349 | 37994 ft | 537 kts | 69° |
| 2026-05-04 07:46 | 21.07129 | 112.17870 | 37989 ft | 537 kts | 69° |
| 2026-05-04 07:47 | 21.09637 | 112.25390 | 37992 ft | 537 kts | 69° |
| 2026-05-04 07:49 | 21.19639 | 112.55501 | 37475 ft | 545 kts | 69° |
| 2026-05-04 07:49 | 21.20910 | 112.59341 | 36743 ft | 547 kts | 69° |
| 2026-05-04 07:49 | 21.22175 | 112.63166 | 36022 ft | 545 kts | 69° |
| 2026-05-04 07:50 | 21.23426 | 112.66955 | 35239 ft | 546 kts | 69° |
| 2026-05-04 07:50 | 21.24694 | 112.70796 | 34368 ft | 548 kts | 69° |
| 2026-05-04 07:50 | 21.25967 | 112.74656 | 33360 ft | 551 kts | 70° |
| 2026-05-04 07:50 | 21.27249 | 112.78548 | 32335 ft | 553 kts | 70° |
| 2026-05-04 07:51 | 21.28526 | 112.82428 | 31314 ft | 554 kts | 70° |
| 2026-05-04 07:51 | 21.29805 | 112.86318 | 30615 ft | 548 kts | 70° |
| 2026-05-04 07:51 | 21.31066 | 112.90157 | 29928 ft | 542 kts | 70° |
| 2026-05-04 07:51 | 21.32312 | 112.93952 | 29179 ft | 535 kts | 70° |
| 2026-05-04 07:52 | 21.33521 | 112.97640 | 28516 ft | 529 kts | 70° |
| 2026-05-04 07:52 | 21.34729 | 113.01331 | 27866 ft | 522 kts | 70° |
| 2026-05-04 07:52 | 21.35926 | 113.04986 | 27235 ft | 516 kts | 70° |
| 2026-05-04 07:52 | 21.37108 | 113.08603 | 26597 ft | 511 kts | 70° |
| 2026-05-04 07:53 | 21.38276 | 113.12173 | 25991 ft | 505 kts | 70° |
| 2026-05-04 07:54 | 21.46187 | 113.36356 | 21608 ft | 477 kts | 70° |
| 2026-05-04 07:55 | 21.47282 | 113.39711 | 21013 ft | 473 kts | 70° |
| 2026-05-04 07:55 | 21.48362 | 113.43022 | 20431 ft | 469 kts | 71° |
| 2026-05-04 07:55 | 21.49433 | 113.46308 | 19868 ft | 465 kts | 71° |
| 2026-05-04 07:55 | 21.50487 | 113.49583 | 19269 ft | 462 kts | 71° |
| 2026-05-04 07:56 | 21.51524 | 113.52840 | 18688 ft | 460 kts | 71° |
| 2026-05-04 07:56 | 21.52735 | 113.55958 | 18073 ft | 457 kts | 62° |
| 2026-05-04 07:56 | 21.54369 | 113.58861 | 17431 ft | 453 kts | 53° |
| 2026-05-04 07:56 | 21.56299 | 113.61505 | 16863 ft | 447 kts | 45° |
| 2026-05-04 07:57 | 21.58491 | 113.63840 | 16283 ft | 441 kts | 41° |
| 2026-05-04 07:57 | 21.60705 | 113.66097 | 15799 ft | 435 kts | 41° |
| 2026-05-04 07:57 | 21.62850 | 113.68323 | 15626 ft | 422 kts | 42° |
| 2026-05-04 07:57 | 21.64917 | 113.70505 | 15443 ft | 409 kts | 42° |
| 2026-05-04 07:58 | 21.66963 | 113.72605 | 15003 ft | 405 kts | 40° |
| 2026-05-04 07:58 | 21.69045 | 113.74625 | 14560 ft | 402 kts | 39° |
| 2026-05-04 07:58 | 21.71093 | 113.76586 | 14104 ft | 399 kts | 39° |
| 2026-05-04 07:58 | 21.73125 | 113.78554 | 13605 ft | 386 kts | 39° |
| 2026-05-04 07:59 | 21.75107 | 113.80492 | 13160 ft | 384 kts | 39° |
| 2026-05-04 07:59 | 21.77070 | 113.82417 | 12872 ft | 377 kts | 39° |
| 2026-05-04 07:59 | 21.78988 | 113.84295 | 12638 ft | 369 kts | 39° |
| 2026-05-04 07:59 | 21.80873 | 113.86144 | 12436 ft | 364 kts | 40° |
| 2026-05-04 08:00 | 21.82744 | 113.87976 | 12252 ft | 366 kts | 40° |
| 2026-05-04 08:00 | 21.84386 | 113.90055 | 12014 ft | 371 kts | 60° |
| 2026-05-04 08:00 | 21.85228 | 113.92648 | 11922 ft | 365 kts | 83° |
| 2026-05-04 08:02 | 21.85693 | 114.11108 | 10426 ft | 349 kts | 89° |
| 2026-05-04 08:02 | 21.85762 | 114.13694 | 10226 ft | 342 kts | 89° |
| 2026-05-04 08:02 | 21.85829 | 114.16223 | 10032 ft | 335 kts | 89° |
| 2026-05-04 08:03 | 21.85894 | 114.18665 | 9897 ft | 323 kts | 89° |
| 2026-05-04 08:03 | 21.86030 | 114.20997 | 9668 ft | 306 kts | 79° |
| 2026-05-04 08:03 | 21.86727 | 114.23107 | 9504 ft | 297 kts | 65° |
| 2026-05-04 08:03 | 21.87588 | 114.25166 | 9340 ft | 305 kts | 65° |
| 2026-05-04 08:04 | 21.88456 | 114.27262 | 9172 ft | 306 kts | 65° |
| 2026-05-04 08:04 | 21.89308 | 114.29346 | 8988 ft | 303 kts | 66° |
| 2026-05-04 08:04 | 21.90148 | 114.31420 | 8836 ft | 300 kts | 66° |
| 2026-05-04 08:04 | 21.90973 | 114.33474 | 8672 ft | 298 kts | 66° |
| 2026-05-04 08:05 | 21.91786 | 114.35507 | 8476 ft | 293 kts | 66° |
| 2026-05-04 08:05 | 21.92571 | 114.37481 | 8312 ft | 288 kts | 66° |
| 2026-05-04 08:05 | 21.93357 | 114.39457 | 8177 ft | 288 kts | 66° |
| 2026-05-04 08:05 | 21.94171 | 114.41443 | 8024 ft | 289 kts | 60° |
| 2026-05-04 08:06 | 21.95468 | 114.43067 | 7859 ft | 289 kts | 32° |
| 2026-05-04 08:06 | 21.97303 | 114.43866 | 7760 ft | 282 kts | 5° |
| 2026-05-04 08:06 | 21.99209 | 114.43839 | 7618 ft | 270 kts | 347° |
| 2026-05-04 08:06 | 22.01023 | 114.43477 | 7518 ft | 260 kts | 345° |
| 2026-05-04 08:08 | 22.13498 | 114.40854 | 6470 ft | 264 kts | 346° |
| 2026-05-04 08:08 | 22.15282 | 114.40490 | 6343 ft | 257 kts | 346° |
| 2026-05-04 08:10 | 22.27819 | 114.36473 | 5966 ft | 216 kts | 338° |
| 2026-05-04 08:11 | 22.29241 | 114.35943 | 6021 ft | 217 kts | 337° |
| 2026-05-04 08:11 | 22.32149 | 114.34865 | 5982 ft | 222 kts | 338° |
| 2026-05-04 08:11 | 22.33581 | 114.34337 | 5974 ft | 220 kts | 338° |
| 2026-05-04 08:12 | 22.35022 | 114.33805 | 5971 ft | 217 kts | 338° |
| 2026-05-04 08:12 | 22.36444 | 114.33279 | 5974 ft | 215 kts | 337° |
| 2026-05-04 08:12 | 22.37852 | 114.32760 | 5963 ft | 212 kts | 337° |
| 2026-05-04 08:12 | 22.39139 | 114.32052 | 5964 ft | 207 kts | 312° |
| 2026-05-04 08:13 | 22.39821 | 114.30715 | 5911 ft | 210 kts | 280° |
| 2026-05-04 08:13 | 22.39842 | 114.29134 | 5692 ft | 211 kts | 264° |
| 2026-05-04 08:13 | 22.39660 | 114.27554 | 5429 ft | 212 kts | 262° |
| 2026-05-04 08:13 | 22.39458 | 114.25995 | 5209 ft | 208 kts | 262° |
| 2026-05-04 08:14 | 22.39260 | 114.24477 | 4974 ft | 204 kts | 261° |
| 2026-05-04 08:14 | 22.39066 | 114.22973 | 4770 ft | 201 kts | 261° |
| 2026-05-04 08:14 | 22.38879 | 114.21488 | 4611 ft | 198 kts | 261° |
| 2026-05-04 08:16 | 22.37538 | 114.10572 | 3061 ft | 204 kts | 262° |
| 2026-05-04 08:16 | 22.37360 | 114.09078 | 2816 ft | 202 kts | 262° |
| 2026-05-04 08:16 | 22.37182 | 114.07590 | 2598 ft | 197 kts | 262° |
| 2026-05-04 08:17 | 22.37008 | 114.06147 | 2349 ft | 189 kts | 262° |
| 2026-05-04 08:17 | 22.36838 | 114.04790 | 2203 ft | 177 kts | 262° |
| 2026-05-04 08:17 | 22.36677 | 114.03495 | 2051 ft | 176 kts | 261° |
| 2026-05-04 08:17 | 22.36518 | 114.02207 | 1888 ft | 165 kts | 262° |
| 2026-05-04 08:19 | 22.34175 | 113.94456 | 658 ft | 149 kts | 253° |
| 2026-05-04 08:19 | 22.33837 | 113.93411 | 427 ft | 145 kts | 252° |
| 2026-05-04 08:20 | 22.33489 | 113.92383 | 274 ft | 147 kts | 253° |
| 2026-05-04 08:20 | 22.33166 | 113.91340 | 100 ft | 146 kts | 253° |
| 2026-05-04 08:20 | 22.32842 | 113.90341 | 41 ft | 131 kts | 256° |
| 2026-05-04 08:20 | 22.32585 | 113.89535 | 42 ft | 96 kts | 250° |
| 2026-05-04 08:21 | 22.32407 | 113.88986 | 43 ft | 61 kts | 244° |
| 2026-05-04 08:21 | 22.32203 | 113.88755 | 43 ft | 6 kts | 196° |
| 2026-05-04 08:21 | 22.32160 | 113.88763 | 43 ft | 7 kts | 161° |
| 2026-05-04 08:21 | 22.32108 | 113.88782 | 42 ft | 9 kts | 159° |
| 2026-05-04 08:22 | 22.32087 | 113.88840 | 42 ft | 9 kts | 85° |
| 2026-05-04 08:22 | 22.32107 | 113.88909 | 42 ft | 10 kts | 71° |
| 2026-05-04 08:24 | 22.32358 | 113.89688 | 42 ft | 20 kts | 71° |
| 2026-05-04 08:24 | 22.32407 | 113.89841 | 42 ft | 23 kts | 71° |
| 2026-05-04 08:24 | 22.32460 | 113.90003 | 42 ft | 23 kts | 73° |
| 2026-05-04 08:24 | 22.32512 | 113.90165 | 42 ft | 23 kts | 70° |
| 2026-05-04 08:25 | 22.32564 | 113.90326 | 42 ft | 23 kts | 72° |
| 2026-05-04 08:25 | 22.32616 | 113.90488 | 42 ft | 23 kts | 70° |
| 2026-05-04 08:25 | 22.32669 | 113.90650 | 42 ft | 23 kts | 71° |
| 2026-05-04 08:25 | 22.32721 | 113.90812 | 42 ft | 23 kts | 70° |
| 2026-05-04 08:26 | 22.32773 | 113.90977 | 42 ft | 24 kts | 71° |
| 2026-05-04 08:27 | 22.33055 | 113.92061 | 42 ft | 11 kts | 158° |
| 2026-05-04 08:28 | 22.32982 | 113.92088 | 42 ft | 12 kts | 162° |
| 2026-05-04 08:28 | 22.32903 | 113.92120 | 42 ft | 13 kts | 159° |
| 2026-05-04 08:28 | 22.32818 | 113.92154 | 42 ft | 14 kts | 162° |
| 2026-05-04 08:28 | 22.32722 | 113.92187 | 42 ft | 15 kts | 162° |
| 2026-05-04 08:29 | 22.32622 | 113.92224 | 42 ft | 15 kts | 160° |
| 2026-05-04 08:29 | 22.32522 | 113.92263 | 42 ft | 15 kts | 161° |
| 2026-05-04 08:29 | 22.32421 | 113.92301 | 42 ft | 15 kts | 160° |
| 2026-05-04 08:31 | 22.32328 | 113.92772 | 42 ft | 21 kts | 70° |
| 2026-05-04 08:33 | 22.32201 | 113.93471 | 42 ft | 11 kts | 207° |
| 2026-05-04 08:33 | 22.32154 | 113.93401 | 42 ft | 12 kts | 241° |
| 2026-05-04 08:35 | 22.31782 | 113.92782 | 42 ft | 15 kts | 251° |
| 2026-05-04 08:35 | 22.31747 | 113.92675 | 42 ft | 15 kts | 250° |
| 2026-05-04 08:35 | 22.31712 | 113.92568 | 42 ft | 15 kts | 251° |
| 2026-05-04 08:35 | 22.31686 | 113.92494 | 42 ft | 11 kts | 238° |
| 2026-05-04 08:37 | 22.31507 | 113.92476 | 42 ft | 0 kts | 205° |